Time;durP1;ratioP1;P1;durP2;ratioP2;P2;SDS_P1;SDS_P2;PMS_P1;PMS_P2;Temp;Humidity;BMP_temperature;BMP_pressure;BME280_temperature;BME280_humidity;BME280_pressure;Samples;Min_cycle;Max_cycle;Signal;HPM_P1;HPM_P2
2022/05/03 00:00:26;;;;;;;7.10;5.90;;;8.90;91.50;;;;;;4973488;28;92566;-70
2022/05/03 00:03:06;;;;;;;8.35;6.22;;;8.80;91.50;;;;;;4972862;28;94996;-70
2022/05/03 00:05:33;;;;;;;6.63;5.97;;;8.80;91.60;;;;;;4958301;28;93352;-70
2022/05/03 00:08:25;;;;;;;6.70;6.10;;;8.80;91.60;;;;;;4973835;28;95539;-70
2022/05/03 00:11:29;;;;;;;6.80;6.03;;;8.80;91.70;;;;;;4975425;28;92350;-70
2022/05/03 00:14:06;;;;;;;7.82;6.32;;;8.70;91.80;;;;;;4970876;28;92618;-70
2022/05/03 00:16:35;;;;;;;7.18;6.30;;;8.70;91.80;;;;;;4970617;28;93228;-70
2022/05/03 00:19:05;;;;;;;7.80;6.47;;;8.60;91.80;;;;;;4955497;28;93047;-70
2022/05/03 00:21:34;;;;;;;8.05;6.45;;;8.60;91.90;;;;;;4955219;28;92175;-70
2022/05/03 00:24:02;;;;;;;6.57;5.97;;;8.60;92.00;;;;;;4955632;28;92377;-70
2022/05/03 00:26:31;;;;;;;8.57;6.68;;;8.60;92.00;;;;;;4955690;28;93218;-70
2022/05/03 00:28:59;;;;;;;8.48;7.28;;;8.50;92.10;;;;;;4952806;28;94899;-70
2022/05/03 00:31:28;;;;;;;8.63;6.50;;;8.50;92.10;;;;;;4956124;28;92433;-70
2022/05/03 00:33:56;;;;;;;7.22;6.22;;;8.50;92.10;;;;;;4954188;28;92607;-70
2022/05/03 00:36:24;;;;;;;8.38;7.07;;;8.50;92.10;;;;;;4955342;28;93289;-70
2022/05/03 00:38:52;;;;;;;9.55;7.28;;;8.40;92.20;;;;;;4955395;28;92987;-70
2022/05/03 00:41:48;;;;;;;8.68;6.88;;;8.40;92.30;;;;;;4970738;28;92677;-70
2022/05/03 00:47:20;;;;;;;9.90;6.80;;;8.30;92.30;;;;;;4956130;28;91734;-70
2022/05/03 00:50:03;;;;;;;7.88;6.60;;;8.30;92.50;;;;;;4955292;28;93157;-70
2022/05/03 00:52:47;;;;;;;7.65;6.65;;;8.30;92.60;;;;;;4954118;28;92512;-70
2022/05/03 00:55:22;;;;;;;7.80;6.80;;;8.30;92.60;;;;;;4953066;28;94936;-70
2022/05/03 00:58:07;;;;;;;11.13;7.13;;;8.30;92.60;;;;;;4970464;28;92879;-70
2022/05/03 01:00:46;;;;;;;8.00;6.93;;;8.20;92.70;;;;;;4970571;28;92933;-70
2022/05/03 01:03:45;;;;;;;7.75;6.82;;;8.20;92.80;;;;;;4954061;28;92502;-70
2022/05/03 01:06:18;;;;;;;10.63;7.88;;;8.20;92.80;;;;;;4962276;28;92507;-70
2022/05/03 01:09:07;;;;;;;10.30;8.18;;;8.20;93.00;;;;;;4955297;28;93249;-70
2022/05/03 01:12:00;;;;;;;8.90;7.72;;;8.20;93.10;;;;;;4955159;28;92760;-70
2022/05/03 01:14:51;;;;;;;9.57;7.78;;;8.10;93.30;;;;;;4974167;28;91668;-70
2022/05/03 01:17:33;;;;;;;8.80;7.03;;;8.10;93.30;;;;;;4973309;28;92504;-70
2022/05/03 01:20:09;;;;;;;9.02;7.32;;;8.10;93.20;;;;;;4958409;28;93316;-70
2022/05/03 01:22:36;;;;;;;8.63;7.22;;;8.10;93.20;;;;;;4972113;28;95665;-70
2022/05/03 01:25:23;;;;;;;8.48;7.07;;;8.00;93.10;;;;;;4958342;28;92410;-70
2022/05/03 01:28:11;;;;;;;8.40;7.20;;;8.10;93.00;;;;;;4973288;28;92412;-70
2022/05/03 01:30:45;;;;;;;8.35;7.35;;;8.00;92.90;;;;;;4946985;28;93229;-70
2022/05/03 01:33:17;;;;;;;10.77;7.85;;;8.00;92.80;;;;;;4956651;28;95764;-70
2022/05/03 01:35:51;;;;;;;9.43;8.38;;;7.90;92.80;;;;;;4957241;28;92484;-70
2022/05/03 01:38:46;;;;;;;9.35;8.10;;;8.00;93.00;;;;;;4973491;28;92459;-70
2022/05/03 01:41:36;;;;;;;10.80;8.32;;;7.90;93.00;;;;;;4973390;28;92540;-70
2022/05/03 01:44:15;;;;;;;9.55;7.60;;;7.80;93.10;;;;;;4973127;28;92523;-71
2022/05/03 01:46:42;;;;;;;10.40;7.80;;;7.90;93.20;;;;;;4958400;28;92508;-70
2022/05/03 01:52:55;;;;;;;10.77;8.07;;;7.90;93.30;;;;;;4957952;28;93157;-70
2022/05/03 01:55:34;;;;;;;9.35;7.85;;;7.80;93.30;;;;;;4973039;28;93062;-70
2022/05/03 01:58:23;;;;;;;9.15;7.70;;;7.70;93.40;;;;;;4958080;28;92479;-70
2022/05/03 02:01:11;;;;;;;10.65;7.60;;;7.80;93.40;;;;;;4956701;28;92454;-70
2022/05/03 02:03:48;;;;;;;11.00;9.05;;;7.70;93.50;;;;;;4957819;28;93300;-70
2022/05/03 02:06:20;;;;;;;11.32;9.05;;;7.70;93.60;;;;;;4972659;28;93002;-70
2022/05/03 02:09:11;;;;;;;12.00;8.48;;;7.70;93.70;;;;;;4973505;28;92112;-70
2022/05/03 02:11:45;;;;;;;10.77;8.20;;;7.60;93.70;;;;;;4972968;28;92455;-70
2022/05/03 02:17:10;;;;;;;8.98;7.63;;;7.60;93.80;;;;;;4968428;28;94855;-70
2022/05/03 02:19:43;;;;;;;9.57;8.27;;;7.60;93.80;;;;;;4957916;28;92535;-70
2022/05/03 02:22:25;;;;;;;9.07;7.47;;;7.60;93.80;;;;;;4957747;28;92786;-70
2022/05/03 02:25:17;;;;;;;10.27;7.88;;;7.60;93.70;;;;;;4956476;28;93373;-70
2022/05/03 02:28:02;;;;;;;11.60;8.35;;;7.50;93.50;;;;;;4957577;28;93181;-70
2022/05/03 02:30:35;;;;;;;10.75;8.57;;;7.50;93.60;;;;;;4957505;28;92473;-70
2022/05/03 02:33:21;;;;;;;10.90;9.00;;;7.50;93.80;;;;;;4957190;28;92359;-70
2022/05/03 02:35:51;;;;;;;11.98;7.70;;;7.50;93.80;;;;;;4972653;28;96817;-70
2022/05/03 02:38:20;;;;;;;9.38;8.15;;;7.40;93.90;;;;;;4972155;28;92449;-70
2022/05/03 02:40:52;;;;;;;10.63;7.80;;;7.40;93.80;;;;;;4972356;28;92424;-71
2022/05/03 02:43:25;;;;;;;12.57;8.20;;;7.40;93.80;;;;;;4971110;28;94914;-70
2022/05/03 02:46:13;;;;;;;9.83;7.90;;;7.40;93.80;;;;;;4971662;28;93318;-70
2022/05/03 02:49:07;;;;;;;9.63;7.45;;;7.40;93.90;;;;;;4955631;28;95465;-70
2022/05/03 02:51:58;;;;;;;13.02;8.02;;;7.40;94.00;;;;;;4954938;28;93215;-70
2022/05/03 02:54:36;;;;;;;10.52;8.20;;;7.30;94.00;;;;;;4957315;28;92434;-70
2022/05/03 02:57:29;;;;;;;11.50;8.43;;;7.30;94.10;;;;;;4971775;28;93355;-70
2022/05/03 03:03:13;;;;;;;;;;;7.30;94.20;;;;;;4958035;28;91755;-70
2022/05/03 03:05:51;;;;;;;10.52;7.93;;;7.10;94.20;;;;;;4930268;28;92539;-70
2022/05/03 03:08:19;;;;;;;11.68;8.80;;;7.10;94.20;;;;;;4955311;28;94243;-70
2022/05/03 03:10:57;;;;;;;13.43;9.52;;;7.10;94.30;;;;;;4970648;28;95545;-70
2022/05/03 03:13:42;;;;;;;10.38;9.20;;;7.10;94.60;;;;;;4956801;28;92429;-70
2022/05/03 03:16:12;;;;;;;11.10;9.10;;;7.10;94.80;;;;;;4954717;28;92377;-70
2022/05/03 03:18:43;;;;;;;12.00;8.90;;;7.00;95.00;;;;;;4955568;28;92998;-70
2022/05/03 03:21:13;;;;;;;13.15;9.82;;;7.10;95.10;;;;;;4971323;28;94028;-70
2022/05/03 03:23:41;;;;;;;14.30;10.20;;;7.10;95.00;;;;;;4956809;28;92534;-70
2022/05/03 03:26:10;;;;;;;12.90;9.10;;;7.10;95.00;;;;;;4970852;28;92625;-70
2022/05/03 03:28:37;;;;;;;13.10;10.38;;;7.10;95.00;;;;;;4955435;28;95088;-70
2022/05/03 03:31:06;;;;;;;10.52;8.88;;;7.10;95.00;;;;;;4970846;28;94884;-70
2022/05/03 03:33:34;;;;;;;12.63;10.07;;;7.10;95.00;;;;;;4956387;28;92499;-70
2022/05/03 03:36:05;;;;;;;13.38;8.93;;;7.10;95.00;;;;;;4953323;28;94907;-70
2022/05/03 03:38:40;;;;;;;10.30;8.52;;;7.20;95.00;;;;;;4971273;28;96059;-70
2022/05/03 03:41:08;;;;;;;10.60;9.13;;;7.20;94.80;;;;;;4956253;28;93122;-70
2022/05/03 03:43:36;;;;;;;11.30;8.10;;;7.20;94.60;;;;;;4955248;28;92858;-70
2022/05/03 03:46:03;;;;;;;12.07;8.68;;;7.20;94.40;;;;;;4956240;28;92469;-70
2022/05/03 03:48:30;;;;;;;10.77;8.75;;;7.20;94.30;;;;;;4971009;28;95903;-70
2022/05/03 03:50:58;;;;;;;13.18;9.70;;;7.10;94.30;;;;;;4956329;28;93081;-70
2022/05/03 03:53:26;;;;;;;11.27;9.07;;;7.10;94.20;;;;;;4956331;28;91674;-70
2022/05/03 03:55:53;;;;;;;10.55;8.32;;;7.10;94.20;;;;;;4956419;28;92928;-70
2022/05/03 03:58:20;;;;;;;10.60;8.43;;;7.20;94.20;;;;;;4955448;28;107811;-70
2022/05/03 04:00:48;;;;;;;12.77;8.57;;;7.20;94.30;;;;;;4954836;28;94829;-70
2022/05/03 04:03:16;;;;;;;10.15;8.65;;;7.30;94.40;;;;;;4956079;28;92519;-70
2022/05/03 04:05:44;;;;;;;10.48;8.77;;;7.30;94.50;;;;;;4956095;28;92436;-70
2022/05/03 04:08:16;;;;;;;12.13;9.13;;;7.40;94.20;;;;;;4954810;28;93257;-70
2022/05/03 04:10:43;;;;;;;14.15;8.38;;;7.50;94.30;;;;;;4956018;28;92920;-70
2022/05/03 04:13:13;;;;;;;10.85;8.55;;;7.50;94.20;;;;;;4954250;28;92590;-70
2022/05/03 04:15:40;;;;;;;11.95;8.50;;;7.60;94.10;;;;;;4971116;28;92541;-70
2022/05/03 04:18:08;;;;;;;10.23;8.82;;;7.70;94.20;;;;;;4957872;28;95044;-70
2022/05/03 04:20:35;;;;;;;11.55;9.00;;;7.70;94.30;;;;;;4973745;28;94859;-70
2022/05/03 04:23:02;;;;;;;10.85;8.65;;;7.80;94.30;;;;;;4957940;28;92911;-70
2022/05/03 04:25:29;;;;;;;10.82;8.98;;;7.80;94.30;;;;;;4974260;28;94816;-70
2022/05/03 04:27:56;;;;;;;13.55;9.70;;;7.90;94.20;;;;;;4975122;28;93141;-70
2022/05/03 04:30:23;;;;;;;12.57;9.45;;;7.90;94.60;;;;;;4957562;28;92914;-70
2022/05/03 04:32:50;;;;;;;10.70;8.27;;;8.00;94.30;;;;;;4973966;28;92999;-70
2022/05/03 04:35:17;;;;;;;10.35;9.10;;;8.10;94.30;;;;;;4975237;28;92466;-70
2022/05/03 04:37:44;;;;;;;10.88;8.43;;;8.20;94.10;;;;;;4975269;28;93279;-70
2022/05/03 04:40:11;;;;;;;10.27;8.85;;;8.30;93.90;;;;;;4957097;28;95505;-70
2022/05/03 04:42:42;;;;;;;9.55;7.95;;;8.40;93.60;;;;;;4959062;28;91807;-70
2022/05/03 04:45:10;;;;;;;12.82;8.85;;;8.40;93.40;;;;;;4973947;28;92681;-70
2022/05/03 04:47:37;;;;;;;10.98;8.65;;;8.40;93.40;;;;;;4976382;28;92481;-70
2022/05/03 04:50:04;;;;;;;12.80;9.77;;;8.40;93.40;;;;;;4975874;28;95670;-70
2022/05/03 04:52:31;;;;;;;10.70;8.55;;;8.40;93.40;;;;;;4976896;28;92537;-70
2022/05/03 04:54:58;;;;;;;11.27;9.00;;;8.50;93.40;;;;;;4961072;28;92524;-70
2022/05/03 04:57:25;;;;;;;10.85;8.63;;;8.50;93.40;;;;;;4976651;28;95720;-70
2022/05/03 04:59:52;;;;;;;10.15;9.07;;;8.60;93.40;;;;;;4978487;28;92716;-70
2022/05/03 05:02:19;;;;;;;16.60;9.82;;;8.70;93.40;;;;;;4978178;28;92997;-70
2022/05/03 05:04:46;;;;;;;10.77;8.88;;;8.80;93.40;;;;;;4978333;28;92504;-70
2022/05/03 05:07:13;;;;;;;9.20;8.30;;;9.00;93.30;;;;;;4961110;28;92459;-70
2022/05/03 05:10:23;;;;;;;10.82;9.73;;;9.20;93.10;;;;;;4977762;28;92843;-70
2022/05/03 05:12:30;;;;;;;14.65;9.63;;;9.30;92.90;;;;;;4960089;28;92479;-70
2022/05/03 05:14:57;;;;;;;10.23;9.10;;;9.40;92.80;;;;;;4975643;28;94858;-70
2022/05/03 05:17:24;;;;;;;11.73;9.88;;;9.50;92.80;;;;;;4960028;28;95874;-70
2022/05/03 05:19:51;;;;;;;11.20;9.77;;;9.60;92.70;;;;;;4978045;28;93108;-70
2022/05/03 05:22:19;;;;;;;11.48;9.90;;;9.70;92.70;;;;;;4978171;28;92458;-70
2022/05/03 05:24:45;;;;;;;11.57;9.38;;;9.80;92.70;;;;;;4976770;28;92557;-70
2022/05/03 05:27:12;;;;;;;12.35;10.15;;;9.90;92.50;;;;;;4977798;28;97994;-70
2022/05/03 05:29:39;;;;;;;13.27;10.38;;;10.00;92.40;;;;;;4977225;28;93085;-70
2022/05/03 05:32:07;;;;;;;15.70;11.18;;;10.10;92.40;;;;;;4977855;28;91623;-70
2022/05/03 05:34:34;;;;;;;11.02;9.77;;;10.20;92.40;;;;;;4977157;28;92918;-70
2022/05/03 05:37:01;;;;;;;12.63;10.48;;;10.30;92.40;;;;;;4959792;28;95709;-70
2022/05/03 05:39:29;;;;;;;13.85;10.38;;;10.30;92.50;;;;;;4974309;28;94918;-70
2022/05/03 05:41:58;;;;;;;14.95;11.27;;;10.40;92.50;;;;;;4977297;28;92357;-70
2022/05/03 05:44:26;;;;;;;14.88;12.50;;;10.50;92.50;;;;;;4975483;28;92516;-70
2022/05/03 05:46:52;;;;;;;14.00;11.98;;;10.60;92.50;;;;;;4977034;28;93386;-70
2022/05/03 05:49:20;;;;;;;14.85;12.43;;;10.70;92.50;;;;;;4977090;28;92525;-70
2022/05/03 05:51:47;;;;;;;15.50;11.90;;;10.90;92.40;;;;;;4976918;28;92521;-70
2022/05/03 05:54:16;;;;;;;14.55;11.98;;;10.90;92.30;;;;;;4959153;28;92552;-70
2022/05/03 05:56:44;;;;;;;15.85;12.60;;;11.00;92.30;;;;;;4976905;28;91726;-70
2022/05/03 05:59:11;;;;;;;18.83;12.35;;;11.10;92.30;;;;;;4975085;28;102527;-70
2022/05/03 06:01:40;;;;;;;14.75;13.02;;;11.20;92.30;;;;;;4975234;28;92455;-70
2022/05/03 06:04:07;;;;;;;17.15;14.25;;;11.30;92.30;;;;;;4974177;28;94919;-70
2022/05/03 06:06:36;;;;;;;16.85;13.93;;;11.50;92.20;;;;;;4958618;28;95821;-70
2022/05/03 06:09:03;;;;;;;19.30;14.82;;;11.60;92.10;;;;;;4958798;28;96504;-70
2022/05/03 06:11:30;;;;;;;17.05;13.90;;;11.60;92.00;;;;;;4975052;28;92468;-71
2022/05/03 06:13:57;;;;;;;17.42;14.80;;;11.70;92.00;;;;;;4958765;28;92582;-70
2022/05/03 06:16:24;;;;;;;20.58;16.08;;;11.80;92.00;;;;;;4941803;28;95794;-70
2022/05/03 06:18:51;;;;;;;18.48;15.73;;;11.80;91.90;;;;;;4958489;28;95625;-70
2022/05/03 06:21:18;;;;;;;19.27;16.58;;;11.90;91.90;;;;;;4977069;28;91718;-70
2022/05/03 06:23:45;;;;;;;17.98;15.27;;;12.00;91.90;;;;;;4958946;28;92555;-70
2022/05/03 06:26:12;;;;;;;19.27;15.90;;;12.00;91.90;;;;;;4976324;28;92895;-70
2022/05/03 06:28:44;;;;;;;20.20;16.40;;;12.00;91.90;;;;;;4973605;28;95013;-70
2022/05/03 06:31:11;;;;;;;21.30;16.45;;;12.10;92.00;;;;;;4976381;28;92452;-70
2022/05/03 06:33:38;;;;;;;19.45;15.77;;;12.20;92.00;;;;;;4974896;28;92578;-70
2022/05/03 06:36:09;;;;;;;19.50;16.17;;;12.30;91.90;;;;;;4975084;28;93344;-71
2022/05/03 06:38:36;;;;;;;20.00;16.77;;;12.50;91.80;;;;;;4974632;28;93049;-70
2022/05/03 06:41:03;;;;;;;19.92;17.00;;;12.70;91.70;;;;;;4976073;28;92418;-70
2022/05/03 06:43:30;;;;;;;25.17;18.35;;;12.90;91.50;;;;;;4976066;28;92411;-70
2022/05/03 06:45:57;;;;;;;21.80;17.85;;;13.10;91.40;;;;;;4957644;28;118322;-71
2022/05/03 06:48:24;;;;;;;28.17;21.08;;;13.30;91.30;;;;;;4976115;28;92434;-71
2022/05/03 06:50:52;;;;;;;24.92;19.75;;;13.30;91.20;;;;;;4976017;28;92515;-71
2022/05/03 06:53:19;;;;;;;26.63;20.55;;;13.40;91.10;;;;;;4957025;28;95262;-70
2022/05/03 06:55:46;;;;;;;31.55;23.33;;;13.50;91.10;;;;;;4957680;28;95980;-70
2022/05/03 06:58:13;;;;;;;41.60;24.48;;;13.50;91.40;;;;;;4975599;28;94460;-71
2022/05/03 07:00:40;;;;;;;27.45;22.02;;;13.50;91.50;;;;;;4975865;28;92432;-71
2022/05/03 07:03:07;;;;;;;30.55;23.88;;;13.50;91.60;;;;;;4976007;28;92782;-71
2022/05/03 07:05:34;;;;;;;28.85;23.13;;;13.50;91.70;;;;;;4957811;28;95693;-70
2022/05/03 07:08:01;;;;;;;33.88;24.40;;;13.40;92.00;;;;;;4957940;28;93059;-71
2022/05/03 07:10:28;;;;;;;34.58;24.23;;;13.30;92.40;;;;;;4975570;28;91734;-70
2022/05/03 07:12:55;;;;;;;30.92;23.77;;;13.30;92.40;;;;;;4974204;28;92564;-70
2022/05/03 07:15:24;;;;;;;32.60;22.92;;;13.20;92.60;;;;;;4974290;28;93270;-71
2022/05/03 07:23:26;;;;;;;29.52;23.80;;;13.00;93.90;;;;;;4958086;28;92472;-70
2022/05/03 07:25:53;;;;;;;32.47;23.00;;;13.00;94.00;;;;;;4975127;28;93483;-70
2022/05/03 07:28:20;;;;;;;29.60;22.45;;;13.00;94.30;;;;;;4975342;28;93095;-71
2022/05/03 07:30:47;;;;;;;29.40;23.02;;;13.00;94.70;;;;;;4975468;28;92492;-70
2022/05/03 07:33:14;;;;;;;29.33;21.52;;;12.80;95.10;;;;;;4975249;28;98293;-70
2022/05/03 07:35:41;;;;;;;25.67;19.20;;;12.80;95.50;;;;;;4957726;28;93779;-70
2022/05/03 07:38:08;;;;;;;23.08;17.60;;;12.70;95.80;;;;;;4975443;28;92474;-70
2022/05/03 07:40:35;;;;;;;24.10;18.17;;;12.60;96.50;;;;;;4957722;28;92479;-71
2022/05/03 07:43:04;;;;;;;22.38;16.80;;;12.70;96.80;;;;;;4974282;28;94871;-71
2022/05/03 07:45:31;;;;;;;22.67;14.40;;;12.70;96.70;;;;;;4975168;28;93216;-71
2022/05/03 07:48:02;;;;;;;15.65;10.63;;;12.80;96.60;;;;;;4973569;28;93292;-70
2022/05/03 07:50:29;;;;;;;10.68;7.43;;;12.80;96.20;;;;;;4973799;28;92430;-70
2022/05/03 07:52:56;;;;;;;10.95;7.97;;;12.70;95.60;;;;;;4957666;28;92506;-71
2022/05/03 07:55:23;;;;;;;9.63;5.72;;;12.70;95.90;;;;;;4975613;28;93298;-71
2022/05/03 07:57:50;;;;;;;12.00;4.95;;;12.70;95.60;;;;;;4974015;28;95518;-70
2022/05/03 08:00:17;;;;;;;9.80;5.40;;;12.60;95.30;;;;;;4958682;28;91657;-71
2022/05/03 08:02:44;;;;;;;6.57;4.32;;;12.70;95.70;;;;;;4941499;28;92552;-71
2022/05/03 08:05:11;;;;;;;11.75;5.57;;;12.60;95.30;;;;;;4975691;28;93408;-71
2022/05/03 08:07:38;;;;;;;8.88;4.18;;;12.70;95.20;;;;;;4973163;28;94873;-70
2022/05/03 08:10:06;;;;;;;7.65;4.65;;;12.80;94.90;;;;;;4973916;28;92470;-71
2022/05/03 08:12:33;;;;;;;10.85;4.60;;;12.80;94.40;;;;;;4957753;28;92496;-70
2022/05/03 08:15:00;;;;;;;8.35;4.13;;;12.90;94.10;;;;;;4975220;28;93320;-71
2022/05/03 08:17:28;;;;;;;9.63;5.10;;;13.00;93.90;;;;;;4974925;28;92566;-71
2022/05/03 08:19:57;;;;;;;15.25;4.35;;;13.00;93.30;;;;;;4957595;28;92469;-71
2022/05/03 08:22:25;;;;;;;9.13;4.25;;;13.10;92.90;;;;;;4975492;28;92505;-71
2022/05/03 08:24:52;;;;;;;5.68;3.10;;;13.30;92.50;;;;;;4979008;28;92575;-71
2022/05/03 08:27:19;;;;;;;6.00;3.65;;;13.40;91.70;;;;;;4977446;28;92505;-71
2022/05/03 08:29:46;;;;;;;9.35;3.90;;;13.60;91.20;;;;;;4977188;28;92415;-71
2022/05/03 08:32:13;;;;;;;10.50;4.20;;;13.70;90.90;;;;;;4976665;28;94827;-71
2022/05/03 08:34:40;;;;;;;7.65;3.90;;;13.80;90.70;;;;;;4960812;28;96243;-71
2022/05/03 08:42:39;;;;;;;7.85;4.45;;;14.20;90.40;;;;;;4979068;28;92457;-71
2022/05/03 08:45:08;;;;;;;11.30;4.40;;;14.20;90.50;;;;;;4978256;28;93239;-71
2022/05/03 08:47:37;;;;;;;14.73;7.00;;;14.10;90.80;;;;;;4978673;28;93198;-71
2022/05/03 08:50:09;;;;;;;12.63;5.22;;;14.20;90.90;;;;;;4961095;28;91790;-71
2022/05/03 08:52:45;;;;;;;11.35;5.72;;;14.20;90.90;;;;;;4977140;28;92507;-71
2022/05/03 08:55:12;;;;;;;12.70;5.60;;;14.30;90.80;;;;;;4960988;28;93304;-71
2022/05/03 08:57:42;;;;;;;10.88;5.82;;;14.30;90.30;;;;;;4977240;28;94972;-71
2022/05/03 09:00:11;;;;;;;11.50;5.95;;;14.50;90.00;;;;;;4960920;28;92603;-71
2022/05/03 09:02:42;;;;;;;12.00;5.88;;;14.50;89.10;;;;;;4960698;28;92550;-71
2022/05/03 09:05:11;;;;;;;9.55;5.60;;;14.30;88.90;;;;;;4960581;28;93329;-71
2022/05/03 09:07:39;;;;;;;13.70;5.68;;;14.20;89.10;;;;;;4976707;28;95677;-71
2022/05/03 09:10:24;;;;;;;14.02;5.95;;;14.20;89.60;;;;;;4978266;28;92816;-71
2022/05/03 09:12:55;;;;;;;12.73;5.60;;;14.20;89.00;;;;;;4960108;28;92514;-71
2022/05/03 09:15:30;;;;;;;13.63;5.38;;;14.00;89.50;;;;;;4978382;28;93095;-71
2022/05/03 09:17:59;;;;;;;15.55;5.85;;;14.10;89.30;;;;;;4976507;28;92575;-72
2022/05/03 09:26:13;;;;;;;12.60;5.20;;;14.10;89.00;;;;;;4958878;28;95729;-71
2022/05/03 09:28:50;;;;;;;10.50;4.55;;;14.00;88.60;;;;;;4975194;28;94094;-72
2022/05/03 09:31:42;;;;;;;16.05;5.53;;;13.90;88.40;;;;;;4975481;28;92439;-71
2022/05/03 09:34:26;;;;;;;15.05;5.75;;;13.90;88.20;;;;;;4973233;28;92431;-71
2022/05/03 09:37:05;;;;;;;15.85;5.68;;;14.00;88.40;;;;;;4974937;28;96067;-71
2022/05/03 09:39:41;;;;;;;12.57;4.90;;;14.10;87.60;;;;;;4976406;28;93019;-71
2022/05/03 09:42:19;;;;;;;16.60;5.30;;;14.20;87.40;;;;;;4959113;28;91751;-71
2022/05/03 09:45:04;;;;;;;14.68;5.13;;;14.30;87.40;;;;;;4976693;28;92446;-71
2022/05/03 09:47:33;;;;;;;17.65;5.40;;;14.40;86.60;;;;;;4976587;28;93174;-71
2022/05/03 09:50:01;;;;;;;14.75;5.35;;;14.40;86.30;;;;;;4974814;28;94844;-71
2022/05/03 09:52:31;;;;;;;14.35;5.22;;;14.40;85.80;;;;;;4976447;28;92382;-72
2022/05/03 09:55:04;;;;;;;16.05;5.40;;;14.40;85.90;;;;;;4974547;28;92540;-71
2022/05/03 09:57:33;;;;;;;15.32;5.72;;;14.50;85.80;;;;;;4976338;28;93039;-71
2022/05/03 10:00:02;;;;;;;24.40;9.50;;;14.50;86.00;;;;;;4975914;28;92572;-71
2022/05/03 10:02:43;;;;;;;11.93;3.95;;;14.60;85.00;;;;;;4974886;28;92427;-72
2022/05/03 10:05:14;;;;;;;11.90;4.25;;;14.80;84.10;;;;;;4976129;28;92583;-72
2022/05/03 10:07:44;;;;;;;9.68;4.50;;;14.90;82.40;;;;;;4958605;28;95040;-71
2022/05/03 10:10:13;;;;;;;8.85;4.47;;;15.00;81.20;;;;;;4976060;28;92393;-71
2022/05/03 10:12:42;;;;;;;11.02;3.67;;;15.10;80.20;;;;;;4976021;28;92391;-72
2022/05/03 10:15:10;;;;;;;12.45;4.00;;;15.30;80.10;;;;;;4973342;28;94917;-71
2022/05/03 10:20:40;;;;;;;11.43;5.38;;;15.40;79.30;;;;;;4977073;28;93059;-71
2022/05/03 10:23:25;;;;;;;7.63;4.00;;;15.50;79.20;;;;;;4975570;28;92533;-72
2022/05/03 10:26:03;;;;;;;11.00;3.50;;;15.70;78.10;;;;;;4977210;28;92451;-72
2022/05/03 10:29:07;;;;;;;8.95;3.53;;;15.70;77.70;;;;;;4976936;28;93271;-72
2022/05/03 10:31:55;;;;;;;8.95;3.90;;;15.90;76.40;;;;;;4976944;28;93105;-72
2022/05/03 10:34:40;;;;;;;12.98;4.40;;;16.00;76.70;;;;;;4960115;28;91754;-71
2022/05/03 10:37:09;;;;;;;7.82;3.58;;;16.10;76.10;;;;;;4975015;28;92488;-71
2022/05/03 10:39:57;;;;;;;10.55;3.80;;;16.00;75.90;;;;;;4976234;28;107412;-71
2022/05/03 10:42:29;;;;;;;12.88;4.13;;;16.00;75.10;;;;;;4973973;28;95515;-71
2022/05/03 10:45:14;;;;;;;10.93;3.92;;;16.00;75.80;;;;;;4974725;28;92788;-71
2022/05/03 10:47:51;;;;;;;9.57;3.30;;;16.10;76.20;;;;;;4977095;28;92788;-71
2022/05/03 10:50:18;;;;;;;7.85;4.10;;;16.00;75.00;;;;;;4976668;28;93232;-71
2022/05/03 10:53:07;;;;;;;6.15;2.88;;;16.00;75.60;;;;;;4974935;28;95574;-71
2022/05/03 10:55:37;;;;;;;10.40;3.45;;;16.40;75.10;;;;;;4959013;28;92549;-71
2022/05/03 10:58:26;;;;;;;9.25;3.60;;;16.60;74.30;;;;;;4975073;28;92771;-72
2022/05/03 11:01:09;;;;;;;9.25;3.95;;;16.80;72.60;;;;;;4976866;28;93682;-71
2022/05/03 11:03:36;;;;;;;7.55;3.95;;;16.90;71.50;;;;;;4976400;28;92959;-72
2022/05/03 11:06:18;;;;;;;9.30;3.67;;;16.80;72.20;;;;;;4976616;28;92427;-71
2022/05/03 11:11:42;;;;;;;6.85;3.63;;;17.30;70.60;;;;;;4976515;28;93410;-72
2022/05/03 11:14:15;;;;;;;9.88;3.20;;;17.30;69.80;;;;;;4974614;28;95460;-71
2022/05/03 11:16:43;;;;;;;9.10;3.35;;;17.30;69.90;;;;;;4958828;28;92685;-71
2022/05/03 11:19:18;;;;;;;10.05;2.85;;;17.40;69.40;;;;;;4958265;28;92422;-71
2022/05/03 11:21:46;;;;;;;8.82;3.20;;;17.40;69.00;;;;;;4974629;28;93352;-71
2022/05/03 11:24:32;;;;;;;9.48;3.47;;;17.30;69.10;;;;;;4973625;28;111129;-71
2022/05/03 11:27:05;;;;;;;7.03;4.57;;;17.30;69.70;;;;;;4976649;28;91664;-71
2022/05/03 11:29:35;;;;;;;10.55;3.00;;;17.50;69.40;;;;;;4974727;28;92421;-71
2022/05/03 11:32:06;;;;;;;7.95;2.72;;;17.50;68.80;;;;;;4976028;28;93104;-71
2022/05/03 11:34:34;;;;;;;8.75;2.97;;;17.60;69.60;;;;;;4956943;28;95490;-71
2022/05/03 11:37:03;;;;;;;6.35;3.17;;;17.50;69.20;;;;;;4942113;28;92583;-71
2022/05/03 11:39:30;;;;;;;8.50;3.40;;;17.40;68.60;;;;;;4975677;28;92483;-70
2022/05/03 11:41:57;;;;;;;8.93;3.55;;;17.60;68.30;;;;;;4957985;28;103544;-75
2022/05/03 11:44:27;;;;;;;6.95;4.55;;;17.60;67.90;;;;;;4975730;28;92729;-71
2022/05/03 11:46:54;;;;;;;10.02;3.42;;;17.70;68.30;;;;;;4958498;28;92547;-71
2022/05/03 11:49:22;;;;;;;6.22;3.47;;;17.90;67.50;;;;;;4973864;28;92505;-71
2022/05/03 11:57:33;;;;;;;8.50;3.08;;;18.20;64.70;;;;;;4975658;28;92515;-71
2022/05/03 12:00:00;;;;;;;6.32;3.33;;;18.00;64.50;;;;;;4973061;28;94904;-72
2022/05/03 12:02:28;;;;;;;6.70;3.80;;;17.80;65.00;;;;;;4957292;28;95946;-71
2022/05/03 12:05:04;;;;;;;5.38;3.45;;;17.80;64.70;;;;;;4957899;28;96227;-72
2022/05/03 12:07:34;;;;;;;6.30;2.97;;;18.00;64.60;;;;;;4975909;28;92873;-71
2022/05/03 12:10:01;;;;;;;7.60;3.17;;;18.10;64.90;;;;;;4958202;28;92484;-71
2022/05/03 12:12:44;;;;;;;6.45;3.17;;;17.90;63.10;;;;;;4957873;28;93268;-71
2022/05/03 12:15:16;;;;;;;7.13;3.45;;;17.80;63.50;;;;;;4975226;28;92917;-71
2022/05/03 12:18:00;;;;;;;8.32;2.90;;;17.80;63.30;;;;;;4957962;28;92101;-71
2022/05/03 12:20:42;;;;;;;6.75;3.08;;;17.90;63.20;;;;;;4975197;28;92888;-71
2022/05/03 12:23:12;;;;;;;5.47;2.70;;;18.10;63.10;;;;;;4975453;28;93181;-71
2022/05/03 12:25:41;;;;;;;5.60;2.85;;;18.20;62.90;;;;;;4974117;28;94794;-71
2022/05/03 12:28:08;;;;;;;9.43;3.88;;;18.10;63.20;;;;;;4941385;28;92419;-71
2022/05/03 12:30:36;;;;;;;9.73;3.22;;;18.30;63.30;;;;;;4974754;28;104510;-71
2022/05/03 12:33:32;;;;;;;5.45;4.10;;;18.40;62.60;;;;;;4957966;28;92949;-71
2022/05/03 12:36:31;;;;;;;5.53;2.67;;;18.20;61.30;;;;;;4974697;28;93282;-71
2022/05/03 12:39:19;;;;;;;7.90;3.70;;;17.90;61.90;;;;;;4975413;28;92354;-71
2022/05/03 12:42:01;;;;;;;6.75;2.90;;;17.90;62.30;;;;;;4957445;28;92503;-71
2022/05/03 12:44:30;;;;;;;6.00;3.03;;;17.80;62.70;;;;;;4957373;28;95272;-71
2022/05/03 12:47:08;;;;;;;5.10;2.60;;;17.80;63.90;;;;;;4975114;28;92539;-71
2022/05/03 12:49:35;;;;;;;4.90;2.60;;;17.90;63.60;;;;;;4975245;28;92464;-71
2022/05/03 12:52:03;;;;;;;4.43;2.60;;;18.00;62.80;;;;;;4974078;28;94838;-71
2022/05/03 12:54:32;;;;;;;9.30;3.80;;;18.10;62.20;;;;;;4974614;28;93245;-71
2022/05/03 12:59:44;;;;;;;6.50;2.60;;;18.10;62.20;;;;;;4975258;28;92415;-71
2022/05/03 13:02:11;;;;;;;6.40;2.55;;;18.30;61.60;;;;;;4957453;28;92567;-71
2022/05/03 13:04:39;;;;;;;6.70;2.35;;;18.40;60.80;;;;;;4975093;28;93322;-71
2022/05/03 13:07:06;;;;;;;4.32;3.53;;;18.30;60.00;;;;;;4957286;28;93123;-71
2022/05/03 13:09:33;;;;;;;4.78;2.65;;;18.00;60.20;;;;;;4960311;28;91812;-71
2022/05/03 13:12:01;;;;;;;6.57;2.70;;;17.70;60.60;;;;;;4960806;28;92485;-71
2022/05/03 13:14:29;;;;;;;7.68;3.83;;;17.60;62.10;;;;;;4960087;28;93235;-71
2022/05/03 13:16:56;;;;;;;4.05;3.13;;;17.50;62.40;;;;;;4958634;28;94975;-71
2022/05/03 13:19:23;;;;;;;7.30;2.22;;;17.50;62.40;;;;;;4978057;28;92431;-71
2022/05/03 13:21:51;;;;;;;10.77;2.60;;;17.40;61.70;;;;;;4960036;28;92528;-71
2022/05/03 13:24:18;;;;;;;6.57;3.28;;;17.20;62.80;;;;;;4960072;28;94511;-71
2022/05/03 13:26:45;;;;;;;7.38;2.72;;;17.10;63.30;;;;;;4959807;28;95757;-71
2022/05/03 13:29:15;;;;;;;6.05;2.15;;;17.00;63.30;;;;;;4978003;28;92517;-71
2022/05/03 13:31:43;;;;;;;9.73;2.85;;;16.90;63.60;;;;;;4977851;28;93507;-72
2022/05/03 13:34:11;;;;;;;6.55;2.65;;;16.90;64.90;;;;;;4960139;28;93623;-71
2022/05/03 13:42:11;;;;;;;7.13;2.85;;;16.90;64.80;;;;;;4976981;28;94833;-71
2022/05/03 13:44:39;;;;;;;8.15;2.75;;;16.80;64.30;;;;;;4960178;28;93201;-71
2022/05/03 13:47:12;;;;;;;8.13;2.65;;;16.80;64.20;;;;;;4959972;28;92856;-71
2022/05/03 13:49:39;;;;;;;5.75;2.65;;;16.90;64.20;;;;;;4959932;28;93459;-71
2022/05/03 13:52:07;;;;;;;5.80;2.88;;;16.80;64.30;;;;;;4977531;28;92491;-71
2022/05/03 13:54:34;;;;;;;7.30;2.55;;;16.80;63.80;;;;;;4977186;28;93173;-71
2022/05/03 13:57:01;;;;;;;4.80;3.33;;;17.00;64.60;;;;;;4959479;28;94063;-71